createdAt,value
2017-08-05T00:00:19.227Z,2.6
2017-08-05T00:01:19.961Z,2.4
2017-08-05T00:02:20.694Z,2.7
2017-08-05T00:03:21.426Z,2.6
2017-08-05T00:04:22.164Z,3.8
2017-08-05T00:05:22.965Z,2.7
2017-08-05T00:06:23.896Z,3.4
2017-08-05T00:07:24.715Z,2.9
2017-08-05T00:08:25.532Z,2.6
2017-08-05T00:09:26.331Z,3.0
2017-08-05T00:10:27.069Z,2.7
2017-08-05T00:11:28.005Z,3.2
2017-08-05T00:12:28.739Z,2.9
2017-08-05T00:13:29.470Z,3.2
2017-08-05T00:14:30.193Z,2.7
2017-08-05T00:15:31.010Z,2.6
2017-08-05T00:16:31.940Z,2.9
2017-08-05T00:17:32.668Z,3.3
2017-08-05T00:18:33.410Z,2.6
2017-08-05T00:19:34.139Z,2.7
2017-08-05T00:20:34.870Z,3.0
2017-08-05T00:21:35.955Z,3.5
2017-08-05T00:22:36.687Z,3.1
2017-08-05T00:23:37.498Z,3.4
2017-08-05T00:24:38.290Z,2.9
2017-08-05T00:25:39.039Z,3.0
2017-08-05T00:26:40.168Z,3.0
2017-08-05T00:27:40.900Z,2.7
2017-08-05T00:28:41.631Z,3.1
2017-08-05T00:29:42.365Z,3.4
2017-08-05T00:30:43.100Z,2.8
2017-08-05T00:31:44.035Z,2.6
2017-08-05T00:32:44.876Z,2.6
2017-08-05T00:33:45.622Z,2.9
2017-08-05T00:34:46.420Z,2.9
2017-08-05T00:35:47.151Z,2.7
2017-08-05T00:36:48.298Z,3.2
2017-08-05T00:37:49.110Z,2.9
2017-08-05T00:38:49.850Z,2.9
2017-08-05T00:39:50.601Z,2.9
2017-08-05T00:40:51.341Z,39.2
2017-08-05T00:41:52.487Z,11.8
2017-08-05T00:42:53.275Z,4.3
2017-08-05T00:43:54.082Z,3.5
2017-08-05T00:44:54.886Z,50.6
2017-08-05T00:45:55.623Z,7.6
2017-08-05T00:46:56.801Z,4.7
2017-08-05T00:47:57.531Z,3.4
2017-08-05T00:48:58.346Z,3.1
2017-08-05T00:49:59.077Z,3.2
2017-08-05T00:50:59.826Z,3.6
2017-08-05T00:52:01.033Z,3.3
2017-08-05T00:53:01.771Z,3.2
2017-08-05T00:54:02.516Z,3.3
2017-08-05T00:55:03.334Z,3.7
2017-08-05T00:56:04.062Z,3.1
2017-08-05T00:57:04.792Z,3.8
2017-08-05T00:58:05.602Z,3.5
2017-08-05T00:59:06.433Z,4.1
2017-08-05T01:00:07.383Z,3.4
2017-08-05T01:01:08.121Z,3.2
2017-08-05T01:02:08.861Z,3.1
2017-08-05T01:03:09.610Z,3.1
2017-08-05T01:04:10.329Z,3.6
2017-08-05T01:05:11.357Z,3.1
2017-08-05T01:06:12.152Z,3.3
2017-08-05T01:07:12.969Z,2.9
2017-08-05T01:08:13.760Z,2.9
2017-08-05T01:09:14.505Z,3.1
2017-08-05T01:10:15.541Z,3.3
2017-08-05T01:11:16.279Z,3.3
2017-08-05T01:12:17.001Z,3.6
2017-08-05T01:13:17.739Z,2.9
2017-08-05T01:14:18.482Z,3.3
2017-08-05T01:15:19.639Z,3.1
2017-08-05T01:16:20.371Z,3.4
2017-08-05T01:17:21.193Z,3.5
2017-08-05T01:18:21.933Z,3.1
2017-08-05T01:19:22.730Z,3.6
2017-08-05T01:20:23.933Z,3.2
2017-08-05T01:21:24.701Z,3.6
2017-08-05T01:22:25.445Z,3.4
2017-08-05T01:23:26.223Z,3.4
2017-08-05T01:24:26.955Z,2.5
2017-08-05T01:25:27.751Z,3.8
2017-08-05T01:26:28.841Z,3.4
2017-08-05T01:27:29.648Z,3.8
2017-08-05T01:28:30.404Z,3.6
2017-08-05T01:29:31.135Z,4.0
2017-08-05T01:30:31.862Z,3.0
2017-08-05T01:31:32.893Z,3.1
2017-08-05T01:32:33.630Z,3.7
2017-08-05T01:33:34.360Z,3.4
2017-08-05T01:34:35.180Z,3.3
2017-08-05T01:35:35.909Z,3.5
2017-08-05T01:36:37.011Z,3.4
2017-08-05T01:37:37.821Z,4.0
2017-08-05T01:38:38.558Z,3.8
2017-08-05T01:39:39.303Z,3.7
2017-08-05T01:40:40.050Z,3.6
2017-08-05T01:41:41.184Z,4.3
2017-08-05T01:42:42.020Z,3.5
2017-08-05T01:43:42.749Z,3.1
2017-08-05T01:44:43.487Z,3.3
2017-08-05T01:45:44.311Z,3.6
2017-08-05T01:46:45.511Z,3.4
2017-08-05T01:47:46.243Z,3.2
2017-08-05T01:48:46.972Z,3.6
2017-08-05T01:49:47.717Z,3.9
2017-08-05T01:50:48.444Z,3.7
2017-08-05T01:51:49.249Z,3.5
2017-08-05T01:52:49.991Z,3.6
2017-08-05T01:53:50.725Z,3.6
2017-08-05T01:54:51.921Z,4.2
2017-08-05T01:55:52.667Z,3.4
2017-08-05T01:56:53.380Z,3.3
2017-08-05T01:57:54.120Z,3.5
2017-08-05T01:58:54.851Z,3.0
2017-08-05T01:59:56.036Z,3.0
2017-08-05T02:00:56.820Z,3.6
2017-08-05T02:01:57.558Z,3.3
2017-08-05T02:02:58.390Z,46.4
2017-08-05T02:03:59.133Z,26.4
2017-08-05T02:05:00.182Z,10.4
2017-08-05T02:06:00.982Z,6.7
2017-08-05T02:07:01.787Z,4.3
2017-08-05T02:08:02.522Z,4.0
2017-08-05T02:09:03.335Z,7.4
2017-08-05T02:10:04.066Z,17.5
2017-08-05T02:11:04.800Z,7.4
2017-08-05T02:12:05.534Z,6.5
2017-08-05T02:13:06.622Z,5.0
2017-08-05T02:14:07.356Z,3.7
2017-08-05T02:15:08.161Z,4.2
2017-08-05T02:16:08.967Z,4.5
2017-08-05T02:17:09.681Z,4.5
2017-08-05T02:18:10.771Z,4.2
2017-08-05T02:19:11.530Z,4.1
2017-08-05T02:20:12.272Z,4.2
2017-08-05T02:21:13.095Z,4.4
2017-08-05T02:22:13.900Z,4.0
2017-08-05T02:23:14.880Z,4.3
2017-08-05T02:24:15.622Z,4.7
2017-08-05T02:25:16.456Z,4.7
2017-08-05T02:26:17.226Z,4.5
2017-08-05T02:27:17.950Z,4.9
2017-08-05T02:28:19.081Z,4.8
2017-08-05T02:29:19.817Z,4.6
2017-08-05T02:30:20.582Z,5.0
2017-08-05T02:31:21.313Z,5.1
2017-08-05T02:32:22.056Z,4.9
2017-08-05T02:33:23.256Z,4.8
2017-08-05T02:34:23.994Z,4.8
2017-08-05T02:35:24.795Z,5.5
2017-08-05T02:36:25.560Z,5.0
2017-08-05T02:37:26.330Z,4.6
2017-08-05T02:38:27.222Z,5.3
2017-08-05T02:39:27.948Z,4.7
2017-08-05T02:40:28.768Z,4.6
2017-08-05T02:41:29.512Z,4.9
2017-08-05T02:42:30.233Z,4.7
2017-08-05T02:43:31.236Z,5.0
2017-08-05T02:44:31.986Z,4.6
2017-08-05T02:45:32.778Z,5.2
2017-08-05T02:46:33.518Z,4.8
2017-08-05T02:47:34.287Z,5.2
2017-08-05T02:48:35.415Z,5.1
2017-08-05T02:49:36.153Z,5.4
2017-08-05T02:50:36.913Z,5.6
2017-08-05T02:51:37.706Z,5.6
2017-08-05T02:52:38.512Z,6.3
2017-08-05T02:53:39.460Z,5.8
2017-08-05T02:54:40.191Z,5.7
2017-08-05T02:55:40.984Z,6.0
2017-08-05T02:56:41.721Z,5.6
2017-08-05T02:57:42.453Z,5.3
2017-08-05T02:58:43.532Z,4.4
2017-08-05T02:59:44.347Z,5.8
2017-08-05T03:00:45.161Z,5.2
2017-08-05T03:01:45.963Z,5.0
2017-08-05T03:02:46.695Z,5.0
2017-08-05T03:03:47.498Z,4.9
2017-08-05T03:04:48.228Z,5.3
2017-08-05T03:05:48.970Z,4.4
2017-08-05T03:06:51.300Z,4.2
2017-08-05T03:07:52.944Z,4.0
2017-08-05T03:08:53.663Z,4.3
2017-08-05T03:09:54.489Z,4.6
2017-08-05T03:10:55.285Z,4.1
2017-08-05T03:11:56.319Z,4.4
2017-08-05T03:12:57.103Z,4.1
2017-08-05T03:13:57.835Z,3.9
2017-08-05T03:14:58.576Z,3.8
2017-08-05T03:15:59.380Z,4.7
2017-08-05T03:17:00.549Z,3.6
2017-08-05T03:18:01.296Z,4.0
2017-08-05T03:19:02.096Z,3.7
2017-08-05T03:20:02.798Z,3.6
2017-08-05T03:21:03.517Z,4.1
2017-08-05T03:22:04.462Z,3.6
2017-08-05T03:23:05.257Z,3.5
2017-08-05T03:24:05.987Z,3.5
2017-08-05T03:25:06.718Z,3.8
2017-08-05T03:26:07.543Z,3.6
2017-08-05T03:27:08.593Z,3.6
2017-08-05T03:28:09.392Z,3.2
2017-08-05T03:29:10.117Z,3.6
2017-08-05T03:30:10.874Z,3.0
2017-08-05T03:31:11.682Z,3.4
2017-08-05T03:32:12.475Z,3.4
2017-08-05T03:33:13.221Z,3.2
2017-08-05T03:34:13.938Z,3.5
2017-08-05T03:35:14.667Z,3.1
2017-08-05T03:36:15.411Z,3.0
2017-08-05T03:37:16.612Z,3.3
2017-08-05T03:38:17.431Z,3.5
2017-08-05T03:39:18.170Z,4.0
2017-08-05T03:40:18.971Z,2.8
2017-08-05T03:41:19.777Z,3.6
2017-08-05T03:42:20.752Z,3.5
2017-08-05T03:43:21.451Z,3.6
2017-08-05T03:44:22.261Z,2.7
2017-08-05T03:45:23.011Z,3.7
2017-08-05T03:46:23.807Z,3.3
2017-08-05T03:47:24.837Z,3.2
2017-08-05T03:48:25.579Z,3.5
2017-08-05T03:49:26.388Z,2.9
2017-08-05T03:50:27.117Z,3.7
2017-08-05T03:51:27.852Z,3.8
2017-08-05T03:52:29.020Z,3.2
2017-08-05T03:53:29.758Z,3.0
2017-08-05T03:54:30.495Z,3.3
2017-08-05T03:55:31.307Z,2.6
2017-08-05T03:56:32.030Z,3.1
2017-08-05T03:57:33.086Z,3.8
2017-08-05T03:58:33.920Z,3.4
2017-08-05T03:59:34.722Z,3.6
2017-08-05T04:00:35.450Z,2.7
2017-08-05T04:01:36.276Z,3.1
2017-08-05T04:02:37.355Z,3.2
2017-08-05T04:03:38.172Z,3.5
2017-08-05T04:04:38.979Z,2.8
2017-08-05T04:05:39.794Z,3.5
2017-08-05T04:06:40.621Z,3.0
2017-08-05T04:07:41.579Z,2.7
2017-08-05T04:08:42.368Z,3.5
2017-08-05T04:09:43.192Z,3.3
2017-08-05T04:10:43.906Z,3.2
2017-08-05T04:11:44.647Z,3.4
2017-08-05T04:12:45.535Z,3.4
2017-08-05T04:13:46.289Z,2.9
2017-08-05T04:14:47.096Z,3.3
2017-08-05T04:15:47.831Z,3.9
2017-08-05T04:16:48.570Z,3.3
2017-08-05T04:17:49.556Z,3.2
2017-08-05T04:18:50.306Z,2.8
2017-08-05T04:19:51.117Z,3.2
2017-08-05T04:20:51.887Z,3.4
2017-08-05T04:21:52.705Z,3.3
2017-08-05T04:22:53.577Z,3.1
2017-08-05T04:23:54.280Z,3.6
2017-08-05T04:24:55.085Z,3.4
2017-08-05T04:25:55.817Z,3.5
2017-08-05T04:26:57.028Z,3.6
2017-08-05T04:27:57.751Z,3.2
2017-08-05T04:28:58.480Z,3.6
2017-08-05T04:29:59.222Z,3.3
2017-08-05T04:31:00.041Z,3.1
2017-08-05T04:32:01.264Z,3.9
2017-08-05T04:33:02.054Z,3.9
2017-08-05T04:34:02.849Z,3.0
2017-08-05T04:35:03.598Z,3.1
2017-08-05T04:36:04.519Z,3.5
2017-08-05T04:37:05.371Z,3.5
2017-08-05T04:38:09.552Z,3.9
2017-08-05T04:39:10.500Z,3.8
2017-08-05T04:40:11.886Z,3.4
2017-08-05T04:41:13.551Z,3.3
2017-08-05T04:42:15.345Z,3.2
2017-08-05T04:43:16.477Z,3.0
2017-08-05T04:44:17.230Z,3.0
2017-08-05T04:45:17.955Z,2.9
2017-08-05T04:46:18.709Z,3.2
2017-08-05T04:47:19.452Z,3.3
2017-08-05T04:48:20.550Z,2.9
2017-08-05T04:49:21.288Z,3.0
2017-08-05T04:50:22.040Z,3.2
2017-08-05T04:51:22.769Z,2.8
2017-08-05T04:52:23.511Z,2.7
2017-08-05T04:53:24.522Z,3.4
2017-08-05T04:54:25.273Z,3.0
2017-08-05T04:55:26.011Z,3.0
2017-08-05T04:56:26.761Z,3.3
2017-08-05T04:57:27.490Z,2.6
2017-08-05T04:58:28.653Z,3.2
2017-08-05T04:59:29.485Z,3.0
2017-08-05T05:00:30.297Z,2.7
2017-08-05T05:01:31.042Z,3.4
2017-08-05T05:02:31.789Z,2.9
2017-08-05T05:03:33.004Z,3.4
2017-08-05T05:04:33.844Z,3.2
2017-08-05T05:05:34.607Z,2.9
2017-08-05T05:06:35.402Z,2.8
2017-08-05T05:07:36.198Z,3.2
2017-08-05T05:08:36.964Z,3.0
2017-08-05T05:09:37.766Z,3.0
2017-08-05T05:10:38.516Z,3.0
2017-08-05T05:11:39.251Z,3.0
2017-08-05T05:12:40.004Z,3.2
2017-08-05T05:13:41.236Z,3.3
2017-08-05T05:14:41.980Z,3.3
2017-08-05T05:15:42.799Z,2.8
2017-08-05T05:16:43.607Z,3.1
2017-08-05T05:17:44.370Z,3.2
2017-08-05T05:18:45.168Z,3.4
2017-08-05T05:19:46.321Z,3.3
2017-08-05T05:20:47.058Z,3.1
2017-08-05T05:21:47.872Z,4.0
2017-08-05T05:22:48.628Z,2.9
2017-08-05T05:23:49.421Z,3.1
2017-08-05T05:24:50.501Z,4.1
2017-08-05T05:25:51.266Z,3.0
2017-08-05T05:26:52.002Z,3.1
2017-08-05T05:27:52.732Z,3.0
2017-08-05T05:28:53.482Z,3.4
2017-08-05T05:29:54.680Z,3.1
2017-08-05T05:30:55.423Z,3.3
2017-08-05T05:31:56.202Z,3.3
2017-08-05T05:32:57.063Z,3.3
2017-08-05T05:33:57.806Z,3.1
2017-08-05T05:34:59.016Z,3.1
2017-08-05T05:35:59.770Z,2.9
2017-08-05T05:37:00.505Z,3.6
2017-08-05T05:38:01.245Z,3.2
2017-08-05T05:39:01.989Z,3.5
2017-08-05T05:40:03.203Z,3.4
2017-08-05T05:41:03.942Z,3.5
2017-08-05T05:42:04.767Z,3.7
2017-08-05T05:43:05.505Z,3.3
2017-08-05T05:44:06.226Z,3.3
2017-08-05T05:45:07.279Z,2.3
2017-08-05T05:46:08.071Z,3.4
2017-08-05T05:47:08.813Z,3.2
2017-08-05T05:48:09.645Z,3.2
2017-08-05T05:49:10.492Z,3.0
2017-08-05T05:50:11.633Z,3.3
2017-08-05T05:51:12.372Z,3.8
2017-08-05T05:52:13.101Z,3.0
2017-08-05T05:53:13.854Z,3.5
2017-08-05T05:54:14.590Z,3.1
2017-08-05T05:55:15.640Z,3.2
2017-08-05T05:56:16.366Z,3.6
2017-08-05T05:57:17.090Z,3.0
2017-08-05T05:58:17.829Z,3.2
2017-08-05T05:59:18.611Z,3.7
2017-08-05T06:00:19.693Z,3.6
2017-08-05T06:01:20.433Z,3.5
2017-08-05T06:02:21.240Z,4.5
2017-08-05T06:03:22.046Z,4.1
2017-08-05T06:04:22.787Z,3.7
2017-08-05T06:05:23.767Z,3.0
2017-08-05T06:06:24.496Z,3.8
2017-08-05T06:07:25.247Z,3.7
2017-08-05T06:08:26.029Z,3.8
2017-08-05T06:09:26.854Z,3.5
2017-08-05T06:10:27.588Z,3.7
2017-08-05T06:11:28.328Z,3.4
2017-08-05T06:12:29.079Z,4.1
2017-08-05T06:13:30.212Z,3.8
2017-08-05T06:14:31.016Z,4.3
2017-08-05T06:15:31.769Z,3.4
2017-08-05T06:16:32.465Z,3.4
2017-08-05T06:17:33.247Z,3.7
2017-08-05T06:18:34.351Z,3.5
2017-08-05T06:19:35.140Z,3.6
2017-08-05T06:20:35.867Z,3.6
2017-08-05T06:21:36.642Z,3.4
2017-08-05T06:22:37.403Z,3.9
2017-08-05T06:23:38.537Z,4.3
2017-08-05T06:24:39.272Z,3.7
2017-08-05T06:25:40.028Z,3.4
2017-08-05T06:26:40.824Z,3.9
2017-08-05T06:27:41.639Z,3.5
2017-08-05T06:28:42.612Z,3.6
2017-08-05T06:29:43.365Z,3.6
2017-08-05T06:30:44.165Z,3.5
2017-08-05T06:31:44.897Z,3.8
2017-08-05T06:32:45.643Z,3.6
2017-08-05T06:33:46.803Z,3.1
2017-08-05T06:34:47.545Z,3.7
2017-08-05T06:35:48.279Z,3.9
2017-08-05T06:36:49.032Z,3.1
2017-08-05T06:37:49.770Z,3.5
2017-08-05T06:38:50.922Z,3.4
2017-08-05T06:39:51.661Z,3.3
2017-08-05T06:40:52.470Z,3.5
2017-08-05T06:41:53.207Z,3.9
2017-08-05T06:42:53.949Z,3.9
2017-08-05T06:43:55.079Z,3.4
2017-08-05T06:44:55.902Z,3.6
2017-08-05T06:45:56.752Z,3.9
2017-08-05T06:46:57.473Z,3.7
2017-08-05T06:47:58.218Z,3.9
2017-08-05T06:48:59.245Z,3.7
2017-08-05T06:49:59.986Z,3.0
2017-08-05T06:51:00.819Z,3.3
2017-08-05T06:52:01.630Z,3.4
2017-08-05T06:53:02.373Z,3.1
2017-08-05T06:54:03.473Z,3.4
2017-08-05T06:55:04.288Z,3.3
2017-08-05T06:56:05.025Z,3.5
2017-08-05T06:57:05.781Z,3.5
2017-08-05T06:58:06.519Z,3.5
2017-08-05T06:59:07.258Z,2.8
2017-08-05T07:00:08.089Z,3.4
2017-08-05T07:01:08.881Z,3.4
2017-08-05T07:02:09.626Z,3.5
2017-08-05T07:03:10.716Z,3.5
2017-08-05T07:04:11.499Z,3.6
2017-08-05T07:05:12.249Z,3.2
2017-08-05T07:06:13.057Z,3.4
2017-08-05T07:07:13.823Z,3.2
2017-08-05T07:08:14.924Z,3.4
2017-08-05T07:09:15.737Z,3.3
2017-08-05T07:10:16.479Z,3.5
2017-08-05T07:11:17.209Z,3.4
2017-08-05T07:12:17.948Z,3.5
2017-08-05T07:13:19.083Z,3.7
2017-08-05T07:14:19.858Z,4.0
2017-08-05T07:15:20.646Z,3.8
2017-08-05T07:16:21.403Z,4.1
2017-08-05T07:17:22.147Z,3.5
2017-08-05T07:18:22.961Z,4.5
2017-08-05T07:19:24.098Z,4.1
2017-08-05T07:20:24.817Z,4.5
2017-08-05T07:21:25.557Z,5.9
2017-08-05T07:22:26.302Z,5.9
2017-08-05T07:23:27.122Z,4.0
2017-08-05T07:24:28.174Z,3.9
2017-08-05T07:25:29.004Z,19.2
2017-08-05T07:26:29.810Z,7.6
2017-08-05T07:27:30.629Z,4.3
2017-08-05T07:28:31.425Z,3.8
2017-08-05T07:29:32.517Z,4.4
2017-08-05T07:30:33.248Z,3.7
2017-08-05T07:31:33.987Z,3.1
2017-08-05T07:32:34.737Z,3.7
2017-08-05T07:33:35.543Z,3.5
2017-08-05T07:34:36.720Z,4.0
2017-08-05T07:35:37.463Z,3.2
2017-08-05T07:36:38.197Z,4.0
2017-08-05T07:37:38.948Z,3.6
2017-08-05T07:38:39.685Z,3.4
2017-08-05T07:39:40.862Z,31.7
2017-08-05T07:40:41.676Z,6.2
2017-08-05T07:41:42.489Z,5.1
2017-08-05T07:42:43.315Z,3.8
2017-08-05T07:43:44.104Z,4.3
2017-08-05T07:44:45.193Z,3.4
2017-08-05T07:45:45.934Z,3.5
2017-08-05T07:46:46.725Z,4.0
2017-08-05T07:47:47.474Z,5.8
2017-08-05T07:48:48.196Z,4.2
2017-08-05T07:49:49.257Z,3.4
2017-08-05T07:50:49.996Z,3.4
2017-08-05T07:51:50.727Z,3.9
2017-08-05T07:52:51.463Z,3.5
2017-08-05T07:53:52.302Z,3.3
2017-08-05T07:54:53.858Z,3.6
2017-08-05T07:55:55.199Z,3.3
2017-08-05T07:56:55.900Z,3.6
2017-08-05T07:57:56.684Z,3.0
2017-08-05T07:58:57.417Z,2.9
2017-08-05T07:59:58.498Z,3.1
2017-08-05T08:00:59.325Z,3.0
2017-08-05T08:02:00.131Z,4.1
2017-08-05T08:03:00.873Z,3.4
2017-08-05T08:04:01.617Z,3.5
2017-08-05T08:05:02.732Z,2.9
2017-08-05T08:06:03.752Z,4.2
2017-08-05T08:07:04.573Z,3.5
2017-08-05T08:08:05.404Z,2.8
2017-08-05T08:09:06.152Z,3.0
2017-08-05T08:10:06.972Z,2.9
2017-08-05T08:11:08.088Z,3.4
2017-08-05T08:12:08.828Z,3.1
2017-08-05T08:13:09.614Z,2.9
2017-08-05T08:14:10.438Z,3.2
2017-08-05T08:15:11.185Z,2.8
2017-08-05T08:16:12.554Z,4.2
2017-08-05T08:17:13.329Z,4.1
2017-08-05T08:18:14.131Z,3.6
2017-08-05T08:19:14.956Z,3.6
2017-08-05T08:20:16.114Z,4.5
2017-08-05T08:21:17.261Z,4.3
2017-08-05T08:22:18.004Z,4.3
2017-08-05T08:23:18.741Z,5.0
2017-08-05T08:24:19.458Z,4.5
2017-08-05T08:25:20.272Z,5.0
2017-08-05T08:26:21.022Z,5.3
2017-08-05T08:27:21.830Z,5.4
2017-08-05T08:28:22.573Z,4.9
2017-08-05T08:29:23.308Z,4.5
2017-08-05T08:30:24.040Z,4.6
2017-08-05T08:31:25.201Z,5.3
2017-08-05T08:32:25.951Z,5.0
2017-08-05T08:33:26.702Z,5.7
2017-08-05T08:34:27.517Z,5.8
2017-08-05T08:35:28.256Z,5.1
2017-08-05T08:36:29.361Z,4.7
2017-08-05T08:37:30.100Z,4.4
2017-08-05T08:38:30.836Z,4.7
2017-08-05T08:39:31.583Z,5.3
2017-08-05T08:40:32.388Z,5.4
2017-08-05T08:41:33.911Z,6.3
2017-08-05T08:42:34.716Z,5.6
2017-08-05T08:43:35.455Z,6.2
2017-08-05T08:44:36.256Z,5.9
2017-08-05T08:45:36.993Z,5.9
2017-08-05T08:46:38.144Z,5.9
2017-08-05T08:47:38.891Z,5.7
2017-08-05T08:48:39.688Z,5.7
2017-08-05T08:49:40.435Z,5.3
2017-08-05T08:50:41.252Z,5.9
2017-08-05T08:51:42.387Z,6.5
2017-08-05T08:52:43.119Z,6.5
2017-08-05T08:53:43.854Z,5.6
2017-08-05T08:54:44.611Z,6.2
2017-08-05T08:55:45.425Z,5.9
2017-08-05T08:56:46.393Z,6.6
2017-08-05T08:57:47.197Z,6.0
2017-08-05T08:58:47.947Z,6.4
2017-08-05T08:59:48.704Z,6.2
2017-08-05T09:00:49.490Z,6.6
2017-08-05T09:01:50.729Z,6.7
2017-08-05T09:02:51.587Z,6.9
2017-08-05T09:03:52.285Z,5.9
2017-08-05T09:04:53.093Z,6.5
2017-08-05T09:05:53.918Z,6.2
2017-08-05T09:06:55.046Z,6.9
2017-08-05T09:07:55.865Z,6.6
2017-08-05T09:08:56.602Z,7.0
2017-08-05T09:09:57.341Z,6.8
2017-08-05T09:10:58.075Z,6.1
2017-08-05T09:11:58.892Z,5.7
2017-08-05T09:12:59.649Z,5.9
2017-08-05T09:14:00.489Z,6.6
2017-08-05T09:15:01.628Z,8.1
2017-08-05T09:16:02.369Z,7.8
2017-08-05T09:17:03.112Z,8.4
2017-08-05T09:18:03.926Z,7.9
2017-08-05T09:19:04.642Z,8.3
2017-08-05T09:20:05.749Z,8.2
2017-08-05T09:21:06.567Z,8.4
2017-08-05T09:22:07.467Z,7.1
2017-08-05T09:23:08.300Z,7.3
2017-08-05T09:24:09.038Z,9.1
2017-08-05T09:25:10.232Z,8.7
2017-08-05T09:26:11.063Z,8.3
2017-08-05T09:27:12.776Z,8.5
2017-08-05T09:28:13.492Z,7.8
2017-08-05T09:29:14.229Z,7.5
2017-08-05T09:30:15.058Z,7.5
2017-08-05T09:31:15.803Z,7.5
2017-08-05T09:32:16.893Z,8.4
2017-08-05T09:33:17.908Z,8.1
2017-08-05T09:34:18.711Z,9.0
2017-08-05T09:35:19.444Z,8.6
2017-08-05T09:36:20.196Z,9.8
2017-08-05T09:37:20.921Z,9.2
2017-08-05T09:38:22.099Z,9.0
2017-08-05T09:39:22.930Z,7.3
2017-08-05T09:40:23.762Z,8.7
2017-08-05T09:41:24.483Z,7.6
2017-08-05T09:42:25.225Z,7.8
2017-08-05T09:43:26.272Z,5.5
2017-08-05T09:44:27.076Z,6.2
2017-08-05T09:45:27.837Z,6.1
2017-08-05T09:46:28.669Z,5.5
2017-08-05T09:47:29.477Z,5.9
2017-08-05T09:48:31.969Z,7.3
2017-08-05T09:49:32.658Z,5.6
2017-08-05T09:50:33.401Z,5.4
2017-08-05T09:51:34.139Z,5.3
2017-08-05T09:52:34.880Z,5.4
2017-08-05T09:53:36.140Z,5.7
2017-08-05T09:54:36.952Z,6.0
2017-08-05T09:55:37.697Z,5.8
2017-08-05T09:56:38.512Z,5.8
2017-08-05T09:57:39.321Z,5.6
2017-08-05T09:58:40.262Z,5.1
2017-08-05T09:59:41.047Z,5.7
2017-08-05T10:00:41.791Z,5.0
2017-08-05T10:01:42.520Z,5.1
2017-08-05T10:02:43.260Z,5.2
2017-08-05T10:03:44.397Z,5.7
2017-08-05T10:04:45.157Z,6.6
2017-08-05T10:05:45.882Z,6.7
2017-08-05T10:06:46.709Z,5.9
2017-08-05T10:07:47.429Z,6.1
2017-08-05T10:08:48.592Z,5.9
2017-08-05T10:09:49.401Z,5.2
2017-08-05T10:10:50.142Z,5.0
2017-08-05T10:11:50.896Z,5.1
2017-08-05T10:12:51.647Z,4.9
2017-08-05T10:13:52.466Z,4.8
2017-08-05T10:14:53.209Z,3.8
2017-08-05T10:15:54.153Z,3.9
2017-08-05T10:16:54.975Z,4.3
2017-08-05T10:17:55.792Z,4.3
2017-08-05T10:18:56.613Z,4.2
2017-08-05T10:19:57.352Z,3.8
2017-08-05T10:20:58.299Z,3.6
2017-08-05T10:21:59.089Z,3.6
2017-08-05T10:22:59.865Z,2.7
2017-08-05T10:24:00.660Z,2.5
2017-08-05T10:25:01.401Z,2.8
2017-08-05T10:26:02.480Z,3.5
2017-08-05T10:27:03.276Z,3.3
2017-08-05T10:28:04.117Z,3.1
2017-08-05T10:29:05.005Z,2.9
2017-08-05T10:30:05.844Z,2.8
2017-08-05T10:31:07.062Z,3.0
2017-08-05T10:32:07.895Z,3.4
2017-08-05T10:33:08.655Z,2.6
2017-08-05T10:34:09.405Z,2.8
2017-08-05T10:35:11.015Z,2.3
2017-08-05T10:36:12.128Z,2.8
2017-08-05T10:37:13.028Z,2.7
2017-08-05T10:38:13.769Z,2.6
2017-08-05T10:39:14.598Z,2.7
2017-08-05T10:40:15.404Z,2.9
2017-08-05T10:41:16.138Z,2.3
2017-08-05T10:42:16.962Z,2.6
2017-08-05T10:43:17.788Z,2.6
2017-08-05T10:44:18.877Z,2.4
2017-08-05T10:45:19.621Z,2.4
2017-08-05T10:46:20.384Z,2.6
2017-08-05T10:47:21.170Z,2.6
2017-08-05T10:48:21.908Z,2.7
2017-08-05T10:49:22.848Z,3.1
2017-08-05T10:50:23.591Z,3.3
2017-08-05T10:51:24.429Z,3.4
2017-08-05T10:52:25.223Z,3.7
2017-08-05T10:53:26.001Z,3.8
2017-08-05T10:54:27.146Z,3.9
2017-08-05T10:55:27.888Z,4.0
2017-08-05T10:56:28.626Z,3.8
2017-08-05T10:57:29.448Z,4.3
2017-08-05T10:58:30.203Z,3.9
2017-08-05T10:59:31.009Z,4.1
2017-08-05T11:00:31.821Z,3.9
2017-08-05T11:01:32.666Z,4.2
2017-08-05T11:02:33.708Z,4.2
2017-08-05T11:03:34.521Z,3.4
2017-08-05T11:04:35.315Z,4.2
2017-08-05T11:05:36.045Z,4.0
2017-08-05T11:06:36.798Z,3.2
2017-08-05T11:07:38.017Z,3.4
2017-08-05T11:08:38.824Z,4.1
2017-08-05T11:09:39.616Z,4.5
2017-08-05T11:10:40.371Z,4.2
2017-08-05T11:11:41.168Z,3.8
2017-08-05T11:12:42.218Z,4.5
2017-08-05T11:13:42.981Z,3.8
2017-08-05T11:14:43.721Z,3.7
2017-08-05T11:15:44.542Z,3.5
2017-08-05T11:16:45.291Z,3.5
2017-08-05T11:17:46.384Z,4.0
2017-08-05T11:18:47.212Z,4.1
2017-08-05T11:19:48.005Z,4.5
2017-08-05T11:20:48.827Z,3.7
2017-08-05T11:21:49.602Z,3.5
2017-08-05T11:22:50.784Z,4.5
2017-08-05T11:23:51.608Z,4.3
2017-08-05T11:24:52.349Z,4.2
2017-08-05T11:25:53.161Z,3.9
2017-08-05T11:26:53.913Z,4.0
2017-08-05T11:27:54.962Z,4.0
2017-08-05T11:28:55.702Z,3.7
2017-08-05T11:29:56.493Z,4.0
2017-08-05T11:30:57.253Z,4.1
2017-08-05T11:31:57.951Z,3.5
2017-08-05T11:32:58.948Z,3.9
2017-08-05T11:33:59.700Z,4.8
2017-08-05T11:35:00.502Z,5.1
2017-08-05T11:36:01.263Z,5.1
2017-08-05T11:37:02.075Z,5.8
2017-08-05T11:38:03.119Z,6.6
2017-08-05T11:39:04.042Z,7.8
2017-08-05T11:40:04.863Z,7.5
2017-08-05T11:41:05.662Z,7.9
2017-08-05T11:42:06.487Z,7.2
2017-08-05T11:43:07.487Z,7.2
2017-08-05T11:44:08.301Z,6.9
2017-08-05T11:45:09.089Z,6.8
2017-08-05T11:46:09.834Z,6.3
2017-08-05T11:47:10.577Z,6.9
2017-08-05T11:48:11.676Z,6.7
2017-08-05T11:49:12.426Z,6.7
2017-08-05T11:50:13.259Z,6.6
2017-08-05T11:51:14.054Z,6.9
2017-08-05T11:52:14.792Z,7.1
2017-08-05T11:53:15.762Z,7.0
2017-08-05T11:54:16.593Z,7.3
2017-08-05T11:55:17.517Z,7.1
2017-08-05T11:56:18.282Z,7.0
2017-08-05T11:57:19.033Z,7.1
2017-08-05T11:58:19.776Z,7.3
2017-08-05T11:59:20.526Z,6.5
2017-08-05T12:00:21.353Z,6.5
2017-08-05T12:01:22.178Z,6.3
2017-08-05T12:02:22.929Z,6.3
2017-08-05T12:03:23.992Z,6.8
2017-08-05T12:04:24.729Z,6.7
2017-08-05T12:05:25.483Z,6.8
2017-08-05T12:06:26.224Z,7.9
2017-08-05T12:07:26.960Z,8.6
2017-08-05T12:08:28.472Z,8.2
2017-08-05T12:09:29.222Z,7.1
2017-08-05T12:10:30.053Z,8.4
2017-08-05T12:11:30.792Z,8.2
2017-08-05T12:12:31.835Z,9.7
2017-08-05T12:13:32.521Z,11.0
2017-08-05T12:14:33.272Z,10.1
2017-08-05T12:15:34.063Z,8.8
2017-08-05T12:16:34.873Z,8.8
2017-08-05T12:17:35.849Z,9.3
2017-08-05T12:18:36.593Z,8.5
2017-08-05T12:19:37.338Z,10.1
2017-08-05T12:20:38.091Z,10.2
2017-08-05T12:21:38.838Z,9.7
2017-08-05T12:22:39.929Z,8.8
2017-08-05T12:23:40.752Z,9.4
2017-08-05T12:24:41.503Z,13.6
2017-08-05T12:25:42.342Z,10.8
2017-08-05T12:26:43.094Z,10.2
2017-08-05T12:27:44.328Z,9.0
2017-08-05T12:28:45.111Z,7.5
2017-08-05T12:29:45.931Z,8.4
2017-08-05T12:30:46.733Z,7.5
2017-08-05T12:31:47.536Z,7.2
2017-08-05T12:32:48.597Z,7.4
2017-08-05T12:33:49.330Z,7.4
2017-08-05T12:34:50.083Z,7.9
2017-08-05T12:35:50.823Z,7.7
2017-08-05T12:36:51.646Z,9.1
2017-08-05T12:37:52.820Z,8.0
2017-08-05T12:38:53.603Z,8.9
2017-08-05T12:39:54.358Z,8.5
2017-08-05T12:40:55.169Z,8.5
2017-08-05T12:41:55.924Z,8.0
2017-08-05T12:42:57.031Z,8.9
2017-08-05T12:43:57.733Z,9.1
2017-08-05T12:44:58.564Z,10.2
2017-08-05T12:45:59.370Z,9.2
2017-08-05T12:47:00.179Z,9.6
2017-08-05T12:48:01.325Z,10.1
2017-08-05T12:49:02.152Z,10.7
2017-08-05T12:50:02.974Z,10.5
2017-08-05T12:51:03.797Z,11.0
2017-08-05T12:52:04.540Z,11.4
2017-08-05T12:53:05.293Z,11.5
2017-08-05T12:54:06.038Z,12.2
2017-08-05T12:55:06.869Z,12.3
2017-08-05T12:56:07.695Z,12.9
2017-08-05T12:57:08.474Z,12.1
2017-08-05T12:58:09.742Z,13.0
2017-08-05T12:59:10.498Z,12.9
2017-08-05T13:00:11.344Z,13.1
2017-08-05T13:01:12.081Z,13.4
2017-08-05T13:02:12.836Z,13.2
2017-08-05T13:03:13.939Z,15.1
2017-08-05T13:04:14.688Z,15.6
2017-08-05T13:05:15.447Z,15.1
2017-08-05T13:06:16.157Z,14.0
2017-08-05T13:07:16.899Z,13.8
2017-08-05T13:08:17.962Z,14.0
2017-08-05T13:09:18.790Z,13.0
2017-08-05T13:10:19.609Z,14.1
2017-08-05T13:11:20.359Z,12.8
2017-08-05T13:12:21.113Z,13.6
2017-08-05T13:13:22.354Z,13.0
2017-08-05T13:14:23.170Z,13.6
2017-08-05T13:15:23.913Z,14.4
2017-08-05T13:16:24.730Z,13.9
2017-08-05T13:17:25.559Z,13.9
2017-08-05T13:18:26.691Z,13.3
2017-08-05T13:19:27.514Z,12.8
2017-08-05T13:20:28.354Z,13.2
2017-08-05T13:21:29.168Z,13.3
2017-08-05T13:22:29.929Z,13.9
2017-08-05T13:23:30.718Z,14.3
2017-08-05T13:24:31.461Z,14.1
2017-08-05T13:25:32.201Z,14.2
2017-08-05T13:26:33.004Z,14.5
2017-08-05T13:27:33.843Z,14.7
2017-08-05T13:28:35.030Z,15.2
2017-08-05T13:29:35.844Z,16.0
2017-08-05T13:30:36.666Z,16.4
2017-08-05T13:31:37.391Z,16.0
2017-08-05T13:32:38.124Z,17.7
2017-08-05T13:33:39.313Z,16.0
2017-08-05T13:34:40.139Z,15.9
2017-08-05T13:35:40.878Z,16.2
2017-08-05T13:36:41.894Z,15.9
2017-08-05T13:37:42.743Z,14.4
2017-08-05T13:38:43.744Z,14.9
2017-08-05T13:39:44.934Z,15.4
2017-08-05T13:40:45.641Z,15.3
2017-08-05T13:41:46.400Z,16.4
2017-08-05T13:42:47.092Z,17.3
2017-08-05T13:43:47.916Z,16.1
2017-08-05T13:44:49.007Z,15.9
2017-08-05T13:45:49.857Z,16.7
2017-08-05T13:46:50.604Z,15.9
2017-08-05T13:47:51.480Z,16.3
2017-08-05T13:48:52.218Z,15.7
2017-08-05T13:49:53.424Z,14.2
2017-08-05T13:50:54.249Z,14.4
2017-08-05T13:51:55.088Z,14.0
2017-08-05T13:52:55.862Z,14.9
2017-08-05T13:53:56.614Z,15.3
2017-08-05T13:54:57.850Z,14.5